createdAt,value
2022-11-19T00:01:26.892Z,100931.63
2022-11-19T00:03:54.730Z,100923.09
2022-11-19T00:06:27.430Z,100916.38
2022-11-19T00:08:55.351Z,100910.75
2022-11-19T00:11:45.483Z,100914.38
2022-11-19T00:14:15.534Z,100912.72
2022-11-19T00:16:43.939Z,100913.03
2022-11-19T00:19:12.101Z,100909.72
2022-11-19T00:21:39.496Z,100909.88
2022-11-19T00:24:07.170Z,100923.81
2022-11-19T00:26:34.125Z,100926.59
2022-11-19T00:29:01.216Z,100924.63
2022-11-19T00:31:28.276Z,100928.91
2022-11-19T00:33:55.315Z,100923.81
2022-11-19T00:36:23.193Z,100918.72
2022-11-19T00:38:50.690Z,100933.19
2022-11-19T00:41:18.078Z,100937.75
2022-11-19T00:43:48.361Z,100931.38
2022-11-19T00:46:25.275Z,100946.13
2022-11-19T00:48:56.056Z,100948.59
2022-11-19T00:51:25.800Z,100951.38
2022-11-19T00:53:53.114Z,100950.56
2022-11-19T00:56:22.916Z,100943.66
2022-11-19T00:58:50.643Z,100946.44
2022-11-19T01:01:20.679Z,100953.63
2022-11-19T01:03:48.668Z,100951.63
2022-11-19T01:06:19.536Z,100949.66
2022-11-19T01:08:52.362Z,100954.25
2022-11-19T01:11:23.762Z,100962.78
2022-11-19T01:13:50.843Z,100953.56
2022-11-19T01:16:25.747Z,100951.31
2022-11-19T01:18:53.561Z,100960.16
2022-11-19T01:21:23.894Z,100956.72
2022-11-19T01:23:51.418Z,100961.28
2022-11-19T01:26:18.974Z,100950.94
2022-11-19T01:28:46.498Z,100946.00
2022-11-19T01:31:23.550Z,100953.88
2022-11-19T01:33:51.170Z,100955.81
2022-11-19T01:36:28.301Z,100955.47
2022-11-19T01:38:56.537Z,100972.81
2022-11-19T01:41:32.432Z,100972.97
2022-11-19T01:44:01.528Z,100964.06
2022-11-19T01:46:32.704Z,100962.88
2022-11-19T01:49:20.777Z,100964.00
2022-11-19T01:51:58.111Z,100966.63
2022-11-19T01:54:31.351Z,100961.16
2022-11-19T01:57:04.310Z,100978.53
2022-11-19T01:59:32.183Z,100971.66
2022-11-19T02:01:59.266Z,100970.16
2022-11-19T02:04:27.726Z,100979.81
2022-11-19T02:06:55.371Z,100982.72
2022-11-19T02:09:24.847Z,100981.06
2022-11-19T02:12:28.680Z,100983.53
2022-11-19T02:15:03.370Z,100982.50
2022-11-19T02:17:54.991Z,100982.50
2022-11-19T02:20:55.795Z,100989.69
2022-11-19T02:23:46.156Z,100988.19
2022-11-19T02:26:34.620Z,100979.50
2022-11-19T02:29:19.115Z,100980.31
2022-11-19T02:31:59.671Z,100980.31
2022-11-19T02:34:39.343Z,100978.38
2022-11-19T02:37:40.991Z,100982.34
2022-11-19T02:40:26.699Z,100970.91
2022-11-19T02:43:30.930Z,100973.06
2022-11-19T02:46:14.248Z,100963.41
2022-11-19T02:48:48.238Z,100967.38
2022-11-19T02:51:16.718Z,100959.50
2022-11-19T02:53:43.615Z,100971.19
2022-11-19T02:56:35.799Z,100968.56
2022-11-19T02:59:22.152Z,100973.50
2022-11-19T03:02:08.562Z,100977.94
2022-11-19T03:04:35.612Z,100970.22
2022-11-19T03:07:13.549Z,100974.34
2022-11-19T03:09:47.919Z,100977.94
2022-11-19T03:12:42.987Z,100962.88
2022-11-19T03:15:52.999Z,100968.13
2022-11-19T03:18:43.320Z,100965.81
2022-11-19T03:21:44.561Z,100971.56
2022-11-19T03:24:21.691Z,100977.47
2022-11-19T03:26:56.395Z,100981.75
2022-11-19T03:29:27.014Z,100966.16
2022-11-19T03:32:02.478Z,100980.63
2022-11-19T03:34:31.792Z,100980.31
2022-11-19T03:37:01.563Z,100988.03
2022-11-19T03:39:29.432Z,100986.75
2022-11-19T03:41:57.828Z,100981.06
2022-11-19T03:44:50.935Z,100987.66
2022-11-19T03:47:29.204Z,100988.78
2022-11-19T03:50:10.039Z,100993.56
2022-11-19T03:52:37.616Z,100991.09
2022-11-19T03:55:04.876Z,100998.81
2022-11-19T03:57:31.820Z,101000.44
2022-11-19T03:59:58.737Z,101001.94
2022-11-19T04:02:25.693Z,101004.13
2022-11-19T04:04:52.559Z,101007.41
2022-11-19T04:07:22.836Z,100998.25
2022-11-19T04:09:50.597Z,100999.91
2022-11-19T04:12:23.574Z,100994.66
2022-11-19T04:14:51.625Z,101005.97
2022-11-19T04:17:19.548Z,101005.00
2022-11-19T04:19:47.949Z,101002.06
2022-11-19T04:22:14.854Z,100994.50
2022-11-19T04:24:42.146Z,101005.66
2022-11-19T04:27:09.164Z,101007.16
2022-11-19T04:29:36.011Z,101011.59
2022-11-19T04:32:02.959Z,101011.72
2022-11-19T04:34:30.285Z,101008.13
2022-11-19T04:36:57.156Z,101002.53
2022-11-19T04:39:24.390Z,100996.00
2022-11-19T04:41:51.311Z,101000.94
2022-11-19T04:44:18.277Z,100994.06
2022-11-19T04:46:45.260Z,100999.16
2022-11-19T04:49:12.378Z,100993.75
2022-11-19T04:51:39.247Z,100983.41
2022-11-19T04:54:08.619Z,100978.84
2022-11-19T04:56:37.041Z,100983.81
2022-11-19T04:59:04.716Z,100979.66
2022-11-19T05:01:31.914Z,100983.81
2022-11-19T05:03:59.129Z,100982.97
2022-11-19T05:06:26.150Z,100979.38
2022-11-19T05:08:53.192Z,100981.31
2022-11-19T05:11:20.454Z,100977.75
2022-11-19T05:13:47.433Z,100977.59
2022-11-19T05:16:14.313Z,100974.41
2022-11-19T05:18:41.485Z,100981.31
2022-11-19T05:21:08.334Z,100967.38
2022-11-19T05:23:35.341Z,100965.06
2022-11-19T05:26:02.435Z,100971.78
2022-11-19T05:28:38.430Z,100976.06
2022-11-19T05:31:07.549Z,100967.91
2022-11-19T05:33:34.824Z,100962.28
2022-11-19T05:36:02.841Z,100967.75
2022-11-19T05:38:30.326Z,100977.13
2022-11-19T05:40:57.378Z,100980.41
2022-11-19T05:43:24.337Z,100962.72
2022-11-19T05:45:51.707Z,100968.78
2022-11-19T05:48:18.561Z,100960.63
2022-11-19T05:50:45.602Z,100965.88
2022-11-19T05:53:12.700Z,100960.47
2022-11-19T05:55:40.120Z,100956.88
2022-11-19T05:58:06.986Z,100965.72
2022-11-19T06:00:34.387Z,100968.69
2022-11-19T06:03:01.270Z,100975.94
2022-11-19T06:05:28.517Z,100968.91
2022-11-19T06:07:55.501Z,100979.38
2022-11-19T06:10:22.468Z,100974.97
2022-11-19T06:12:49.326Z,100979.22
2022-11-19T06:15:16.767Z,100978.41
2022-11-19T06:17:43.649Z,100983.66
2022-11-19T06:20:11.274Z,100986.28
2022-11-19T06:22:39.213Z,100975.63
2022-11-19T06:25:07.638Z,100983.50
2022-11-19T06:27:34.955Z,100992.88
2022-11-19T06:30:02.454Z,100981.84
2022-11-19T06:32:29.309Z,100966.44
2022-11-19T06:34:56.340Z,100967.09
2022-11-19T06:37:24.157Z,100970.06
2022-11-19T06:39:51.176Z,100987.63
2022-11-19T06:42:36.101Z,100970.22
2022-11-19T06:45:13.430Z,100976.13
2022-11-19T06:47:42.035Z,100974.84
2022-11-19T06:50:10.808Z,100979.13
2022-11-19T06:52:38.314Z,100974.22
2022-11-19T06:55:06.252Z,100974.22
2022-11-19T06:57:33.306Z,100964.91
2022-11-19T07:00:00.262Z,100979.22
2022-11-19T07:02:27.808Z,100981.38
2022-11-19T07:04:54.622Z,100973.84
2022-11-19T07:07:21.794Z,100971.06
2022-11-19T07:09:48.849Z,100974.69
2022-11-19T07:12:15.862Z,100978.50
2022-11-19T07:14:42.714Z,100976.22
2022-11-19T07:17:10.234Z,100975.63
2022-11-19T07:19:37.130Z,100971.69
2022-11-19T07:22:04.242Z,100960.88
2022-11-19T07:24:31.267Z,100974.53
2022-11-19T07:26:58.205Z,100969.78
2022-11-19T07:29:25.106Z,100975.56
2022-11-19T07:31:53.540Z,100975.25
2022-11-19T07:34:21.123Z,100968.03
2022-11-19T07:36:49.401Z,100968.53
2022-11-19T07:39:17.177Z,100971.00
2022-11-19T07:42:02.581Z,100972.69
2022-11-19T07:44:29.743Z,100979.44
2022-11-19T07:46:56.740Z,100973.19
2022-11-19T07:49:24.909Z,100973.00
2022-11-19T07:51:52.645Z,100974.47
2022-11-19T07:54:19.586Z,100968.72
2022-11-19T07:56:46.775Z,100962.75
2022-11-19T07:59:14.051Z,100965.03
2022-11-19T08:01:41.011Z,100965.16
2022-11-19T08:04:08.275Z,100960.94
2022-11-19T08:06:35.459Z,100965.81
2022-11-19T08:09:04.234Z,100945.16
2022-11-19T08:11:31.680Z,100952.81
2022-11-19T08:14:01.669Z,100941.84
2022-11-19T08:16:47.511Z,100934.88
2022-11-19T08:19:16.599Z,100945.03
2022-11-19T08:21:46.314Z,100930.94
2022-11-19T08:24:15.918Z,100939.63
2022-11-19T08:26:43.898Z,100932.81
2022-11-19T08:29:16.441Z,100940.72
2022-11-19T08:31:46.429Z,100935.56
2022-11-19T08:34:14.960Z,100927.47
2022-11-19T08:36:41.914Z,100932.56
2022-11-19T08:39:09.037Z,100917.19
2022-11-19T08:41:54.812Z,100924.56
2022-11-19T08:44:22.738Z,100933.03
2022-11-19T08:46:50.556Z,100928.22
2022-11-19T08:49:17.612Z,100926.66
2022-11-19T08:51:44.717Z,100937.59
2022-11-19T08:54:13.145Z,100929.19
2022-11-19T08:56:40.042Z,100938.38
2022-11-19T08:59:07.337Z,100942.75
2022-11-19T09:01:35.272Z,100938.28
2022-11-19T09:04:02.419Z,100935.00
2022-11-19T09:06:29.432Z,100928.72
2022-11-19T09:08:56.412Z,100926.72
2022-11-19T09:11:23.447Z,100921.91
2022-11-19T09:13:50.844Z,100926.47
2022-11-19T09:16:17.875Z,100925.81
2022-11-19T09:18:44.887Z,100925.38
2022-11-19T09:21:12.578Z,100928.28
2022-11-19T09:23:41.461Z,100925.28
2022-11-19T09:26:17.747Z,100926.72
2022-11-19T09:28:45.322Z,100932.47
2022-11-19T09:31:18.571Z,100927.19
2022-11-19T09:33:49.621Z,100928.09
2022-11-19T09:36:18.671Z,100927.34
2022-11-19T09:38:46.878Z,100920.16
2022-11-19T09:41:54.351Z,100907.09
2022-11-19T09:44:46.278Z,100913.38
2022-11-19T09:47:34.256Z,100909.59
2022-11-19T09:50:31.059Z,100908.84
2022-11-19T09:53:11.414Z,100915.09
2022-11-19T09:55:45.774Z,100917.69
2022-11-19T09:58:45.785Z,100903.19
2022-11-19T10:01:17.734Z,100910.25
2022-11-19T10:03:52.200Z,100904.59
2022-11-19T10:06:30.271Z,100906.47
2022-11-19T10:09:12.312Z,100900.91
2022-11-19T10:12:00.869Z,100899.72
2022-11-19T10:14:53.910Z,100891.97
2022-11-19T10:17:42.007Z,100881.38
2022-11-19T10:20:47.975Z,100886.91
2022-11-19T10:23:44.974Z,100885.47
2022-11-19T10:26:18.957Z,100869.41
2022-11-19T10:28:57.133Z,100875.50
2022-11-19T10:31:39.887Z,100864.53
2022-11-19T10:34:12.434Z,100863.53
2022-11-19T10:36:49.513Z,100858.25
2022-11-19T10:39:39.892Z,100857.25
2022-11-19T10:42:25.864Z,100842.41
2022-11-19T10:45:03.759Z,100842.47
2022-11-19T10:48:09.742Z,100856.00
2022-11-19T10:50:36.867Z,100841.34
2022-11-19T10:53:29.615Z,100846.56
2022-11-19T10:56:01.847Z,100846.00
2022-11-19T10:58:56.428Z,100831.81
2022-11-19T11:01:34.454Z,100828.19
2022-11-19T11:04:29.912Z,100831.31
2022-11-19T11:07:03.887Z,100832.38
2022-11-19T11:09:33.799Z,100828.72
2022-11-19T11:12:57.428Z,100816.66
2022-11-19T11:15:27.953Z,100815.16
2022-11-19T11:18:08.067Z,100804.63
2022-11-19T11:20:38.137Z,100806.56
2022-11-19T11:23:12.287Z,100799.72
2022-11-19T11:25:40.356Z,100788.16
2022-11-19T11:28:20.293Z,100788.06
2022-11-19T11:31:28.660Z,100787.81
2022-11-19T11:33:57.457Z,100770.34
2022-11-19T11:36:31.075Z,100767.47
2022-11-19T11:39:01.118Z,100780.13
2022-11-19T11:44:34.986Z,100772.53
2022-11-19T11:47:23.869Z,100784.31
2022-11-19T11:50:07.785Z,100761.09
2022-11-19T11:52:47.972Z,100770.66
2022-11-19T11:55:24.107Z,100772.97
2022-11-19T11:57:53.987Z,100775.56
2022-11-19T12:00:47.040Z,100766.69
2022-11-19T12:03:19.005Z,100769.84
2022-11-19T12:06:16.881Z,100770.72
2022-11-19T12:09:00.391Z,100775.84
2022-11-19T12:11:54.182Z,100758.88
2022-11-19T12:15:10.064Z,100750.34
2022-11-19T12:17:50.027Z,100758.16
2022-11-19T12:20:44.319Z,100749.19
2022-11-19T12:23:42.723Z,100771.84
2022-11-19T12:26:57.655Z,100753.47
2022-11-19T12:29:47.224Z,100768.19
2022-11-19T12:32:29.248Z,100760.25
2022-11-19T12:35:24.108Z,100768.63
2022-11-19T12:38:40.502Z,100759.69
2022-11-19T12:41:46.222Z,100762.63
2022-11-19T12:44:27.876Z,100773.03
2022-11-19T12:47:39.526Z,100772.53
2022-11-19T12:50:31.711Z,100773.34
2022-11-19T12:53:14.830Z,100768.72
2022-11-19T12:55:47.367Z,100750.47
2022-11-19T12:58:23.309Z,100766.34
2022-11-19T13:00:59.135Z,100760.53
2022-11-19T13:03:46.382Z,100749.72
2022-11-19T13:07:01.903Z,100747.06
2022-11-19T13:09:45.141Z,100750.59
2022-11-19T13:12:21.705Z,100755.09
2022-11-19T13:15:01.011Z,100749.41
2022-11-19T13:17:33.516Z,100743.91
2022-11-19T13:20:16.334Z,100750.06
2022-11-19T13:22:47.590Z,100747.00
2022-11-19T13:25:25.215Z,100748.88
2022-11-19T13:27:55.401Z,100741.31
2022-11-19T13:30:26.634Z,100739.25
2022-11-19T13:33:52.841Z,100746.00
2022-11-19T13:36:33.233Z,100744.75
2022-11-19T13:39:16.529Z,100749.06
2022-11-19T13:42:08.304Z,100744.16
2022-11-19T13:44:41.012Z,100742.53
2022-11-19T13:47:19.964Z,100739.69
2022-11-19T13:49:54.291Z,100739.66
2022-11-19T13:52:44.119Z,100741.31
2022-11-19T13:55:35.135Z,100745.78
2022-11-19T13:58:14.307Z,100740.06
2022-11-19T14:00:57.925Z,100740.47
2022-11-19T14:04:06.493Z,100747.00
2022-11-19T14:06:48.032Z,100742.06
2022-11-19T14:09:51.766Z,100744.06
2022-11-19T14:12:57.152Z,100751.34
2022-11-19T14:19:04.738Z,100744.50
2022-11-19T14:21:49.909Z,100749.59
2022-11-19T14:24:44.878Z,100753.84
2022-11-19T14:27:27.822Z,100763.41
2022-11-19T14:30:06.615Z,100750.31
2022-11-19T14:32:46.417Z,100749.03
2022-11-19T14:35:26.188Z,100746.97
2022-11-19T14:38:06.489Z,100754.34
2022-11-19T14:40:34.526Z,100753.09
2022-11-19T14:43:19.827Z,100750.63
2022-11-19T14:46:04.759Z,100744.66
2022-11-19T14:48:35.787Z,100750.53
2022-11-19T14:51:10.971Z,100755.97
2022-11-19T14:53:49.047Z,100748.56
2022-11-19T14:56:20.795Z,100754.84
2022-11-19T14:59:14.900Z,100743.78
2022-11-19T15:02:18.926Z,100740.25
2022-11-19T15:05:01.618Z,100736.75
2022-11-19T15:07:37.632Z,100746.84
2022-11-19T15:10:23.288Z,100750.25
2022-11-19T15:13:13.090Z,100749.38
2022-11-19T15:15:43.919Z,100741.34
2022-11-19T15:18:45.237Z,100757.34
2022-11-19T15:21:42.498Z,100749.34
2022-11-19T15:24:36.439Z,100737.88
2022-11-19T15:27:34.425Z,100741.91
2022-11-19T15:30:25.850Z,100738.38
2022-11-19T15:33:17.861Z,100740.16
2022-11-19T15:36:33.510Z,100741.34
2022-11-19T15:39:14.206Z,100743.72
2022-11-19T15:42:00.477Z,100738.19
2022-11-19T15:44:37.105Z,100743.28
2022-11-19T15:47:26.200Z,100737.09
2022-11-19T15:49:53.971Z,100744.28
2022-11-19T15:52:28.110Z,100740.84
2022-11-19T15:55:20.296Z,100736.94
2022-11-19T15:57:52.336Z,100732.66
2022-11-19T16:00:23.286Z,100724.28
2022-11-19T16:02:52.201Z,100739.38
2022-11-19T16:05:24.682Z,100736.75
2022-11-19T16:07:52.981Z,100729.00
2022-11-19T16:10:34.112Z,100733.09
2022-11-19T16:13:43.378Z,100742.28
2022-11-19T16:16:47.983Z,100734.91
2022-11-19T16:19:17.291Z,100731.81
2022-11-19T16:21:49.070Z,100728.00
2022-11-19T16:24:38.465Z,100729.38
2022-11-19T16:27:13.308Z,100720.88
2022-11-19T16:29:42.846Z,100719.81
2022-11-19T16:32:17.465Z,100720.06
2022-11-19T16:34:49.576Z,100720.00
2022-11-19T16:37:20.856Z,100711.06
2022-11-19T16:39:53.134Z,100713.09
2022-11-19T16:42:28.227Z,100705.34
2022-11-19T16:45:30.700Z,100716.53
2022-11-19T16:48:01.160Z,100699.63
2022-11-19T16:50:43.733Z,100700.63
2022-11-19T16:53:12.482Z,100710.44
2022-11-19T16:55:42.963Z,100709.81
2022-11-19T16:58:09.951Z,100713.53
2022-11-19T17:00:38.027Z,100722.47
2022-11-19T17:03:27.787Z,100730.81
2022-11-19T17:05:57.992Z,100726.53
2022-11-19T17:08:35.209Z,100718.00
2022-11-19T17:12:08.168Z,100719.06
2022-11-19T17:14:35.172Z,100720.19
2022-11-19T17:17:03.575Z,100715.09
2022-11-19T17:19:36.265Z,100721.00
2022-11-19T17:22:17.744Z,100710.25
2022-11-19T17:24:46.173Z,100724.91
2022-11-19T17:27:35.467Z,100711.06
2022-11-19T17:30:11.071Z,100721.00
2022-11-19T17:32:46.828Z,100707.44
2022-11-19T17:35:42.690Z,100712.53
2022-11-19T17:38:32.547Z,100718.38
2022-11-19T17:41:04.858Z,100722.00
2022-11-19T17:43:54.267Z,100727.75
2022-11-19T17:46:26.205Z,100725.91
2022-11-19T17:48:53.877Z,100726.09
2022-11-19T17:51:25.637Z,100721.63
2022-11-19T17:53:53.351Z,100727.91
2022-11-19T17:56:22.600Z,100730.00
2022-11-19T17:58:49.635Z,100722.63
2022-11-19T18:01:17.744Z,100735.91
2022-11-19T18:03:44.915Z,100733.47
2022-11-19T18:06:14.459Z,100728.81
2022-11-19T18:08:42.367Z,100720.06
2022-11-19T18:11:22.000Z,100716.25
2022-11-19T18:13:55.075Z,100718.50
2022-11-19T18:16:25.627Z,100723.78
2022-11-19T18:18:53.111Z,100732.34
2022-11-19T18:21:23.037Z,100721.97
2022-11-19T18:23:51.649Z,100710.41
2022-11-19T18:26:22.350Z,100723.22
2022-11-19T18:28:49.924Z,100727.31
2022-11-19T18:31:27.064Z,100721.47
2022-11-19T18:33:56.241Z,100721.91
2022-11-19T18:36:25.081Z,100726.00
2022-11-19T18:38:52.876Z,100725.44
2022-11-19T18:41:20.009Z,100712.41
2022-11-19T18:44:06.146Z,100727.50
2022-11-19T18:46:34.475Z,100723.69
2022-11-19T18:49:01.346Z,100724.94
2022-11-19T18:51:31.192Z,100726.38
2022-11-19T18:53:58.376Z,100723.72
2022-11-19T18:56:25.475Z,100727.63
2022-11-19T18:58:52.803Z,100716.63
2022-11-19T19:01:20.174Z,100728.69
2022-11-19T19:03:47.423Z,100729.53
2022-11-19T19:06:15.529Z,100727.50
2022-11-19T19:08:42.656Z,100721.78
2022-11-19T19:11:28.099Z,100727.50
2022-11-19T19:13:55.411Z,100727.97
2022-11-19T19:16:23.125Z,100727.78
2022-11-19T19:18:50.149Z,100714.03
2022-11-19T19:21:21.097Z,100727.41
2022-11-19T19:23:48.721Z,100705.91
2022-11-19T19:26:17.916Z,100725.56
2022-11-19T19:28:54.198Z,100721.09
2022-11-19T19:31:22.128Z,100732.13
2022-11-19T19:33:49.869Z,100735.16
2022-11-19T19:36:18.510Z,100735.78
2022-11-19T19:38:45.983Z,100729.84
2022-11-19T19:41:25.771Z,100750.25
2022-11-19T19:43:54.922Z,100738.84
2022-11-19T19:46:23.865Z,100741.31
2022-11-19T19:48:55.892Z,100735.19
2022-11-19T19:51:26.083Z,100739.03
2022-11-19T19:53:54.018Z,100734.94
2022-11-19T19:56:23.785Z,100745.16
2022-11-19T19:58:52.058Z,100752.25
2022-11-19T20:01:30.861Z,100745.34
2022-11-19T20:04:06.697Z,100753.28
2022-11-19T20:06:35.932Z,100749.00
2022-11-19T20:09:08.388Z,100752.66
2022-11-19T20:11:37.200Z,100753.47
2022-11-19T20:14:04.814Z,100753.22
2022-11-19T20:16:33.447Z,100765.22
2022-11-19T20:19:01.563Z,100764.59
2022-11-19T20:21:34.161Z,100762.16
2022-11-19T20:24:04.916Z,100770.09
2022-11-19T20:26:34.409Z,100768.78
2022-11-19T20:29:04.803Z,100756.13
2022-11-19T20:31:33.966Z,100767.34
2022-11-19T20:34:03.759Z,100767.63
2022-11-19T20:36:33.571Z,100764.44
2022-11-19T20:39:01.123Z,100774.22
2022-11-19T20:41:47.234Z,100779.50
2022-11-19T20:44:23.528Z,100778.03
2022-11-19T20:46:56.698Z,100777.41
2022-11-19T20:49:27.630Z,100782.63
2022-11-19T20:51:55.524Z,100772.44
2022-11-19T20:54:23.981Z,100778.91
2022-11-19T20:56:52.750Z,100786.09
2022-11-19T20:59:20.613Z,100782.00
2022-11-19T21:01:52.796Z,100771.63
2022-11-19T21:04:20.917Z,100771.63
2022-11-19T21:06:49.673Z,100771.63
2022-11-19T21:09:17.287Z,100775.16
2022-11-19T21:11:44.245Z,100782.44
2022-11-19T21:14:11.838Z,100778.78
2022-11-19T21:16:38.931Z,100777.97
2022-11-19T21:19:05.942Z,100773.88
2022-11-19T21:21:32.832Z,100774.88
2022-11-19T21:24:00.273Z,100776.34
2022-11-19T21:26:28.804Z,100769.59
2022-11-19T21:28:58.762Z,100767.16
2022-11-19T21:31:45.571Z,100768.16
2022-11-19T21:34:17.674Z,100760.59
2022-11-19T21:36:46.868Z,100770.81
2022-11-19T21:39:16.356Z,100754.25
2022-11-19T21:41:44.104Z,100771.09
2022-11-19T21:44:13.332Z,100764.38
2022-11-19T21:46:43.780Z,100770.53
2022-11-19T21:49:10.644Z,100760.16
2022-11-19T21:51:37.869Z,100762.44
2022-11-19T21:54:05.001Z,100776.47
2022-11-19T21:56:38.218Z,100773.00
2022-11-19T21:59:07.248Z,100768.91
2022-11-19T22:01:34.260Z,100765.81
2022-11-19T22:04:01.278Z,100768.47
2022-11-19T22:06:28.249Z,100771.75
2022-11-19T22:08:55.363Z,100756.63
2022-11-19T22:11:31.880Z,100768.47
2022-11-19T22:14:02.198Z,100761.91
2022-11-19T22:16:32.274Z,100759.28
2022-11-19T22:18:59.290Z,100761.72
2022-11-19T22:21:27.504Z,100757.63
2022-11-19T22:23:55.148Z,100746.06
2022-11-19T22:26:22.098Z,100753.72
2022-11-19T22:28:49.329Z,100748.00
2022-11-19T22:31:16.327Z,100749.00
2022-11-19T22:33:43.323Z,100728.00
2022-11-19T22:36:11.618Z,100747.94
2022-11-19T22:38:39.203Z,100750.19
2022-11-19T22:41:19.127Z,100738.00
2022-11-19T22:43:46.592Z,100735.47
2022-11-19T22:46:14.969Z,100738.56
2022-11-19T22:48:42.552Z,100731.81
2022-11-19T22:51:16.993Z,100736.84
2022-11-19T22:53:44.415Z,100734.66
2022-11-19T22:56:14.337Z,100734.22
2022-11-19T22:58:42.024Z,100731.75
2022-11-19T23:01:21.902Z,100732.13
2022-11-19T23:03:49.635Z,100720.31
2022-11-19T23:06:16.659Z,100738.59
2022-11-19T23:08:45.056Z,100735.59
2022-11-19T23:11:14.633Z,100736.53
2022-11-19T23:13:44.089Z,100737.78
2022-11-19T23:16:20.626Z,100734.69
2022-11-19T23:18:52.793Z,100724.06
2022-11-19T23:21:24.110Z,100730.97
2022-11-19T23:23:51.672Z,100727.88
2022-11-19T23:26:22.129Z,100732.16
2022-11-19T23:28:49.787Z,100737.44
2022-11-19T23:31:23.258Z,100733.16
2022-11-19T23:33:55.995Z,100725.59
2022-11-19T23:36:48.811Z,100718.66
2022-11-19T23:39:17.837Z,100719.66
2022-11-19T23:41:45.114Z,100729.78
2022-11-19T23:44:12.378Z,100720.59
2022-11-19T23:46:39.908Z,100727.13
2022-11-19T23:49:07.087Z,100724.69
2022-11-19T23:51:38.380Z,100724.88
2022-11-19T23:54:07.165Z,100734.25
2022-11-19T23:56:35.923Z,100723.16
2022-11-19T23:59:05.264Z,100725.41
